Terminal Aerodrome Forecast
Issued by NWS

Home | Current Version | Previous Version | Text Only | Print | Product List | Glossary On
Versions: 1 2 3 4 5 6 7 8 9 10 11 12 13 14 15 16
967
FTUS44 KLIX 280545
TAFMCB
TAF
KMCB 280545Z 2806/2906 19006KT P6SM BKN010 BKN014 OVC030
      TEMPO 2811/2815 20005KT P6SM BKN008
     FM281900 22010KT P6SM BKN050=

USA.gov is the U.S. government's official web portal to all federal, state and local government web resources and services.